createdAt,value
2019-05-11T00:00:24.864Z,9.5
2019-05-11T00:05:56.456Z,10.2
2019-05-11T00:10:21.072Z,11.2
2019-05-11T00:22:31.059Z,11.1
2019-05-11T00:31:21.589Z,11.5
2019-05-11T00:44:37.300Z,12.3
2019-05-11T00:49:02.596Z,11.7
2019-05-11T00:53:27.084Z,14.8
2019-05-11T01:05:37.024Z,12.4
2019-05-11T01:06:43.575Z,13.7
2019-05-11T01:15:34.055Z,13.8
2019-05-11T01:23:18.234Z,12.8
2019-05-11T01:28:49.795Z,12.4
2019-05-11T01:33:15.040Z,12.9
2019-05-11T01:37:40.259Z,11.8
2019-05-11T01:45:24.474Z,13.1
2019-05-11T01:49:49.067Z,11.7
2019-05-11T01:50:55.976Z,11.9
2019-05-11T01:54:14.974Z,12
2019-05-11T01:58:40.217Z,12.1
2019-05-11T01:59:46.526Z,13.3
2019-05-11T02:03:05.436Z,11.8
2019-05-11T02:11:55.949Z,12.3
2019-05-11T02:13:02.267Z,13.8
2019-05-11T02:16:21.016Z,12.6
2019-05-11T02:17:27.501Z,12.6
2019-05-11T02:18:33.791Z,12.8
2019-05-11T02:20:46.448Z,12.8
2019-05-11T02:21:52.756Z,13.1
2019-05-11T02:22:59.006Z,13.6
2019-05-11T02:29:36.910Z,12.1
2019-05-11T02:31:49.510Z,12.5
2019-05-11T02:35:08.444Z,12.5
2019-05-11T02:38:27.396Z,12.2
2019-05-11T02:40:40.015Z,12.4
2019-05-11T02:43:58.928Z,12.8
2019-05-11T02:46:11.574Z,13.1
2019-05-11T02:47:17.902Z,13.5
2019-05-11T02:53:55.074Z,15
2019-05-11T02:56:08.358Z,14.7
2019-05-11T02:57:14.679Z,13.8
2019-05-11T02:58:21.035Z,13.5
2019-05-11T03:01:39.930Z,13.6
2019-05-11T03:04:58.922Z,12.3
2019-05-11T03:06:05.220Z,13.5
2019-05-11T03:07:11.534Z,14.1
2019-05-11T03:09:24.151Z,14
2019-05-11T03:13:49.345Z,13.6
2019-05-11T03:18:14.616Z,13.9
2019-05-11T03:19:20.904Z,14.1
2019-05-11T03:22:39.898Z,15.1
2019-05-11T03:23:46.161Z,13.9
2019-05-11T03:24:52.466Z,14.7
2019-05-11T03:27:05.079Z,13.4
2019-05-11T03:28:11.409Z,13.6
2019-05-11T03:29:17.729Z,13.2
2019-05-11T03:31:30.037Z,13.5
2019-05-11T03:35:55.577Z,12.4
2019-05-11T03:39:14.549Z,13.4
2019-05-11T03:40:20.850Z,12.6
2019-05-11T03:41:27.182Z,12.6
2019-05-11T03:50:17.656Z,13.3
2019-05-11T03:51:23.937Z,13.6
2019-05-11T03:53:36.595Z,13.6
2019-05-11T03:58:01.830Z,13.2
2019-05-11T04:02:27.063Z,13.1
2019-05-11T04:03:33.402Z,12.3
2019-05-11T04:04:39.693Z,12.6
2019-05-11T04:06:52.314Z,13.9
2019-05-11T04:09:04.094Z,12.8
2019-05-11T04:11:17.585Z,13.2
2019-05-11T04:12:23.087Z,12.1
2019-05-11T04:15:42.776Z,12.2
2019-05-11T04:20:08.039Z,10.8
2019-05-11T04:22:20.682Z,11
2019-05-11T04:24:33.313Z,11.1
2019-05-11T04:25:39.597Z,10.2
2019-05-11T04:27:52.005Z,11.7
2019-05-11T04:31:11.012Z,13
2019-05-11T04:34:30.078Z,10.9
2019-05-11T04:35:36.356Z,11.7
2019-05-11T04:37:49.001Z,10.8
2019-05-11T04:46:39.457Z,11.2
2019-05-11T04:47:45.766Z,11.2
2019-05-11T04:51:04.748Z,11
2019-05-11T04:55:29.955Z,9.4
2019-05-11T04:56:36.025Z,9.3
2019-05-11T04:59:55.176Z,9
2019-05-11T05:01:01.498Z,8.9
2019-05-11T05:02:07.834Z,9
2019-05-11T05:06:33.014Z,8.9
2019-05-11T05:07:39.325Z,9.7
2019-05-11T05:08:45.674Z,9.3
2019-05-11T05:09:51.947Z,8.8
2019-05-11T05:10:58.272Z,8.7
2019-05-11T05:13:10.908Z,9.2
2019-05-11T05:15:23.838Z,10.1
2019-05-11T05:17:36.105Z,10.2
2019-05-11T05:18:42.407Z,11.1
2019-05-11T05:19:48.726Z,8.9
2019-05-11T05:22:01.344Z,8.9
2019-05-11T05:24:14.015Z,9.8
2019-05-11T05:30:51.815Z,13
2019-05-11T05:31:58.136Z,13.1
2019-05-11T05:36:23.399Z,17.2
2019-05-11T05:37:29.664Z,14.4
2019-05-11T05:40:48.615Z,14.4
2019-05-11T05:41:54.925Z,14.3
2019-05-11T05:43:01.242Z,14.8
2019-05-11T05:44:07.579Z,14
2019-05-11T05:46:20.189Z,13.2
2019-05-11T05:50:45.004Z,14.9
2019-05-11T05:52:58.058Z,14.9
2019-05-11T05:54:04.309Z,14.4
2019-05-11T05:55:10.625Z,14.1
2019-05-11T05:58:29.535Z,15.8
2019-05-11T05:59:35.847Z,16.1
2019-05-11T06:01:48.492Z,14.6
2019-05-11T06:02:54.810Z,14.2
2019-05-11T06:04:01.138Z,16.3
2019-05-11T06:06:13.723Z,14.2
2019-05-11T06:07:20.047Z,14.6
2019-05-11T06:10:38.096Z,15.3
2019-05-11T06:15:04.236Z,13.7
2019-05-11T06:16:10.649Z,13.5
2019-05-11T06:17:16.836Z,12.9
2019-05-11T06:19:29.044Z,11.8
2019-05-11T06:20:35.773Z,13.9
2019-05-11T06:21:42.047Z,11.7
2019-05-11T06:23:54.671Z,12.2
2019-05-11T06:25:00.963Z,10.6
2019-05-11T06:26:07.313Z,9.6
2019-05-11T06:30:32.560Z,12.1
2019-05-11T06:32:45.135Z,10.9
2019-05-11T06:34:57.773Z,11.1
2019-05-11T06:38:16.711Z,10.4
2019-05-11T06:41:35.591Z,11.5
2019-05-11T06:43:48.238Z,9.4
2019-05-11T06:46:00.853Z,9
2019-05-11T06:47:07.166Z,9.9
2019-05-11T06:50:26.009Z,10.1
2019-05-11T06:52:38.713Z,10.1
2019-05-11T06:57:03.936Z,10.1
2019-05-11T07:00:22.856Z,10.9
2019-05-11T07:01:29.187Z,9
2019-05-11T07:03:41.782Z,9.8
2019-05-11T07:05:54.416Z,9.3
2019-05-11T07:08:07.037Z,10.3
2019-05-11T07:09:13.038Z,10.1
2019-05-11T07:12:32.249Z,11.4
2019-05-11T07:16:57.505Z,10.4
2019-05-11T07:19:10.187Z,10.9
2019-05-11T07:21:22.715Z,10.3
2019-05-11T07:22:29.025Z,10.4
2019-05-11T07:25:47.950Z,9.9
2019-05-11T07:26:54.326Z,9.7
2019-05-11T07:28:00.642Z,9.8
2019-05-11T07:29:06.925Z,9.4
2019-05-11T07:30:13.198Z,10.9
2019-05-11T07:31:19.050Z,9.6
2019-05-11T07:32:25.825Z,9.1
2019-05-11T07:34:38.442Z,9.3
2019-05-11T07:36:51.110Z,9.1
2019-05-11T07:39:03.681Z,8.6
2019-05-11T07:43:28.909Z,8.3
2019-05-11T07:44:35.215Z,8.4
2019-05-11T07:45:41.533Z,8
2019-05-11T07:47:54.176Z,8
2019-05-11T07:49:00.505Z,8.3
2019-05-11T07:52:19.413Z,8.5
2019-05-11T07:53:25.758Z,7.6
2019-05-11T07:56:44.670Z,8.7
2019-05-11T07:57:50.950Z,9.5
2019-05-11T07:58:57.295Z,13.4
2019-05-11T08:05:35.094Z,10.2
2019-05-11T08:06:41.041Z,9.2
2019-05-11T08:07:47.705Z,8.3
2019-05-11T08:10:00.329Z,7.8
2019-05-11T08:11:06.677Z,7.4
2019-05-11T08:12:12.975Z,8.4
2019-05-11T08:14:25.602Z,7.5
2019-05-11T08:15:31.928Z,8.3
2019-05-11T08:16:38.172Z,10.3
2019-05-11T08:18:50.806Z,8.1
2019-05-11T08:19:57.137Z,7.9
2019-05-11T08:23:16.042Z,9.1
2019-05-11T08:25:28.651Z,10.5
2019-05-11T08:28:47.599Z,10.2
2019-05-11T08:32:06.542Z,10.1
2019-05-11T08:37:38.061Z,12.1
2019-05-11T08:40:57.153Z,13.8
2019-05-11T08:47:34.834Z,13.7
2019-05-11T08:49:47.470Z,13.5
2019-05-11T08:50:53.792Z,13.7
2019-05-11T08:56:25.333Z,13.1
2019-05-11T08:59:44.249Z,13.9
2019-05-11T09:00:50.564Z,13.2
2019-05-11T09:03:03.189Z,15.1
2019-05-11T09:07:28.461Z,14.9
2019-05-11T09:09:41.046Z,14.2
2019-05-11T09:12:59.966Z,15.8
2019-05-11T09:14:06.274Z,14.9
2019-05-11T09:18:31.476Z,16.6
2019-05-11T09:21:50.465Z,16.3
2019-05-11T09:27:21.099Z,18.9
2019-05-11T09:29:34.632Z,19.7
2019-05-11T09:35:06.115Z,19.7
2019-05-11T09:38:25.090Z,20.5
2019-05-11T09:39:31.038Z,22.8
2019-05-11T09:40:37.718Z,21.1
2019-05-11T09:43:56.590Z,21.8
2019-05-11T09:45:02.908Z,22.6
2019-05-11T09:47:15.553Z,23.9
2019-05-11T09:51:40.750Z,24.5
2019-05-11T09:53:53.416Z,25.3
2019-05-11T09:54:59.713Z,27.1
2019-05-11T09:57:12.324Z,27.3
2019-05-11T09:59:24.955Z,29.3
2019-05-11T10:02:43.900Z,29.1
2019-05-11T10:04:56.462Z,29.7
2019-05-11T10:06:02.780Z,30.8
2019-05-11T10:09:21.738Z,31.8
2019-05-11T10:10:28.079Z,32
2019-05-11T10:12:40.657Z,33.9
2019-05-11T10:18:12.260Z,38.8
2019-05-11T10:20:24.799Z,40.8
2019-05-11T10:24:50.079Z,45.2
2019-05-11T10:25:56.543Z,45.8
2019-05-11T10:28:08.970Z,49
2019-05-11T10:33:40.518Z,51.1
2019-05-11T10:35:53.150Z,51.6
2019-05-11T10:38:05.775Z,52.6
2019-05-11T10:39:12.138Z,54.8
2019-05-11T10:40:18.508Z,54.4
2019-05-11T10:41:24.689Z,57.6
2019-05-11T10:42:31.016Z,59.3
2019-05-11T10:44:43.586Z,57
2019-05-11T10:46:56.252Z,54.5
2019-05-11T10:50:15.185Z,54.3
2019-05-11T10:53:34.093Z,56.8
2019-05-11T10:55:46.697Z,56.4
2019-05-11T10:57:59.308Z,55.5
2019-05-11T11:01:18.255Z,49.9
2019-05-11T11:02:24.516Z,51
2019-05-11T11:03:30.828Z,49.2
2019-05-11T11:05:43.484Z,50.7
2019-05-11T11:06:49.007Z,48
2019-05-11T11:09:02.402Z,46.9
2019-05-11T11:11:15.005Z,45.5
2019-05-11T11:12:21.295Z,45.2
2019-05-11T11:14:33.953Z,46
2019-05-11T11:15:40.325Z,43.5
2019-05-11T11:17:52.880Z,42
2019-05-11T11:18:59.190Z,44
2019-05-11T11:20:05.483Z,43.3
2019-05-11T11:22:18.110Z,40.9
2019-05-11T11:24:30.730Z,40.5
2019-05-11T11:25:37.054Z,37.3
2019-05-11T11:26:43.359Z,35.4
2019-05-11T11:28:56.003Z,35.8
2019-05-11T11:31:08.566Z,34.7
2019-05-11T11:33:21.208Z,32.9
2019-05-11T11:34:27.049Z,32.8
2019-05-11T11:35:33.818Z,32.4
2019-05-11T11:36:40.124Z,31.5
2019-05-11T11:37:46.460Z,32.3
2019-05-11T11:38:52.752Z,31.4
2019-05-11T11:39:59.110Z,32.3
2019-05-11T11:42:11.070Z,32.1
2019-05-11T11:44:24.271Z,31.6
2019-05-11T11:47:43.020Z,30.8
2019-05-11T11:49:55.821Z,30.1
2019-05-11T11:51:02.133Z,29.4
2019-05-11T11:52:08.467Z,28.3
2019-05-11T11:53:14.771Z,29.3
2019-05-11T11:54:21.055Z,28.1
2019-05-11T11:55:27.386Z,27.4
2019-05-11T11:56:34.002Z,28.8
2019-05-11T11:57:39.953Z,28
2019-05-11T11:58:46.304Z,26.7
2019-05-11T11:59:52.569Z,26.1
2019-05-11T12:00:58.872Z,27
2019-05-11T12:04:17.833Z,24.3
2019-05-11T12:06:30.463Z,23.9
2019-05-11T12:07:36.754Z,22.7
2019-05-11T12:08:43.338Z,22.2
2019-05-11T12:09:49.038Z,21.5
2019-05-11T12:12:01.986Z,22
2019-05-11T12:13:08.321Z,21.2
2019-05-11T12:18:39.827Z,19.4
2019-05-11T12:19:46.334Z,17.7
2019-05-11T12:20:52.454Z,18.6
2019-05-11T12:21:58.762Z,17.5
2019-05-11T12:23:05.045Z,18
2019-05-11T12:28:36.611Z,14.4
2019-05-11T12:37:27.061Z,13.3
2019-05-11T12:39:39.690Z,13.4
2019-05-11T12:40:45.987Z,14
2019-05-11T12:41:52.324Z,13.3
2019-05-11T12:44:04.956Z,13.2
2019-05-11T12:45:11.245Z,13.5
2019-05-11T12:47:23.870Z,14.8
2019-05-11T12:48:30.147Z,14.3
2019-05-11T12:51:49.099Z,13.8
2019-05-11T12:52:55.383Z,13.5
2019-05-11T12:54:01.696Z,11.7
2019-05-11T12:55:07.998Z,13.6
2019-05-11T12:59:33.248Z,12.4
2019-05-11T13:00:39.546Z,11.1
2019-05-11T13:01:45.878Z,11.2
2019-05-11T13:02:52.300Z,11.6
2019-05-11T13:03:58.501Z,13.5
2019-05-11T13:06:11.059Z,11.5
2019-05-11T13:07:17.437Z,11.1
2019-05-11T13:08:23.716Z,12.4
2019-05-11T13:12:48.959Z,10.8
2019-05-11T13:13:55.255Z,12.3
2019-05-11T13:15:01.597Z,13.1
2019-05-11T13:16:07.000Z,13.4
2019-05-11T13:17:14.019Z,11.2
2019-05-11T13:19:26.008Z,11.4
2019-05-11T13:21:39.419Z,15.5
2019-05-11T13:22:45.713Z,17.4
2019-05-11T13:23:52.000Z,13.8
2019-05-11T13:24:58.345Z,11.2
2019-05-11T13:28:17.286Z,12.8
2019-05-11T13:29:23.553Z,11.9
2019-05-11T13:30:29.844Z,13.9
2019-05-11T13:31:36.219Z,12.9
2019-05-11T13:32:42.520Z,11.4
2019-05-11T13:34:55.115Z,12.7
2019-05-11T13:36:01.424Z,13.7
2019-05-11T13:37:07.758Z,14.3
2019-05-11T13:38:14.018Z,12
2019-05-11T13:40:26.655Z,14.2
2019-05-11T13:43:45.610Z,13.6
2019-05-11T13:44:51.885Z,12
2019-05-11T13:47:04.527Z,15.5
2019-05-11T13:48:10.846Z,14.9
2019-05-11T13:50:23.441Z,13.6
2019-05-11T13:53:42.035Z,14.4
2019-05-11T13:57:01.295Z,13.6
2019-05-11T13:58:07.593Z,12.4
2019-05-11T13:59:13.910Z,14.8
2019-05-11T14:00:20.213Z,15.5
2019-05-11T14:01:26.528Z,13
2019-05-11T14:04:45.444Z,15.4
2019-05-11T14:06:58.041Z,13.4
2019-05-11T14:09:10.847Z,13.5
2019-05-11T14:15:48.545Z,13.8
2019-05-11T14:16:54.859Z,15.2
2019-05-11T14:19:07.474Z,17.8
2019-05-11T14:21:20.139Z,17.8
2019-05-11T14:22:26.423Z,15.2
2019-05-11T14:26:51.667Z,15.9
2019-05-11T14:27:57.974Z,15.5
2019-05-11T14:29:04.273Z,13.2
2019-05-11T14:31:16.897Z,11.8
2019-05-11T14:33:29.504Z,13.3
2019-05-11T14:34:35.823Z,11.1
2019-05-11T14:44:32.625Z,10.7
2019-05-11T14:45:38.932Z,9.9
2019-05-11T14:50:04.120Z,10.8
2019-05-11T14:53:23.071Z,11.6
2019-05-11T14:54:29.462Z,8.8
2019-05-11T14:56:42.031Z,11.9
2019-05-11T14:58:54.641Z,7.9
2019-05-11T15:01:07.261Z,10.1
2019-05-11T15:06:38.826Z,9.6
2019-05-11T15:07:45.156Z,9.7
2019-05-11T15:12:10.386Z,8.7
2019-05-11T15:13:16.673Z,10.7
2019-05-11T15:14:22.098Z,9.2
2019-05-11T15:15:29.281Z,9.4
2019-05-11T15:16:35.601Z,9.2
2019-05-11T15:17:41.913Z,7.3
2019-05-11T15:18:48.247Z,11.2
2019-05-11T15:19:54.541Z,9.7
2019-05-11T15:21:00.856Z,8.6
2019-05-11T15:23:13.521Z,8.4
2019-05-11T15:25:26.054Z,11.3
2019-05-11T15:27:38.685Z,8.9
2019-05-11T15:28:45.012Z,8.5
2019-05-11T15:34:16.552Z,10.6
2019-05-11T15:37:35.501Z,8.8
2019-05-11T15:38:41.773Z,7.5
2019-05-11T15:39:48.152Z,8.5
2019-05-11T15:40:54.435Z,8
2019-05-11T15:48:38.602Z,8.9
2019-05-11T15:50:51.024Z,9.4
2019-05-11T15:51:57.558Z,8.2
2019-05-11T15:53:03.869Z,8.5
2019-05-11T15:55:16.434Z,7.1
2019-05-11T15:56:22.794Z,7.3
2019-05-11T15:59:41.692Z,8.8
2019-05-11T16:03:00.640Z,7.9
2019-05-11T16:04:06.949Z,9.7
2019-05-11T16:05:13.024Z,8.3
2019-05-11T16:07:25.881Z,9.2
2019-05-11T16:11:51.118Z,9.2
2019-05-11T16:12:57.435Z,10.5
2019-05-11T16:14:03.734Z,8.5
2019-05-11T16:18:28.947Z,8.7
2019-05-11T16:20:41.605Z,8.8
2019-05-11T16:21:47.905Z,9.2
2019-05-11T16:22:54.180Z,7.1
2019-05-11T16:24:00.531Z,8.2
2019-05-11T16:25:06.008Z,9.7
2019-05-11T16:29:32.120Z,10.1
2019-05-11T16:31:44.683Z,8.7
2019-05-11T16:35:03.635Z,8.9
2019-05-11T16:36:09.915Z,7
2019-05-11T16:38:22.583Z,9.5
2019-05-11T16:40:35.197Z,9.1
2019-05-11T16:41:41.500Z,8.5
2019-05-11T16:42:47.843Z,7.7
2019-05-11T16:43:54.122Z,13.6
2019-05-11T16:46:06.746Z,10.1
2019-05-11T16:47:13.038Z,8.9
2019-05-11T16:49:25.067Z,8.7
2019-05-11T16:51:38.313Z,11.2
2019-05-11T16:53:50.913Z,9.8
2019-05-11T16:56:03.557Z,10.9
2019-05-11T16:57:09.083Z,8.3
2019-05-11T16:58:16.141Z,10.6
2019-05-11T17:00:28.077Z,8.6
2019-05-11T17:01:35.115Z,9.1
2019-05-11T17:02:41.406Z,11.8
2019-05-11T17:04:54.008Z,9.5
2019-05-11T17:06:00.339Z,9.8
2019-05-11T17:07:06.635Z,9.9
2019-05-11T17:08:12.952Z,12.8
2019-05-11T17:09:19.252Z,11.8
2019-05-11T17:10:25.542Z,9.7
2019-05-11T17:11:31.857Z,9
2019-05-11T17:13:44.475Z,11.4
2019-05-11T17:15:57.087Z,10.6
2019-05-11T17:18:09.711Z,9.6
2019-05-11T17:19:16.051Z,11.3
2019-05-11T17:22:35.011Z,13.3
2019-05-11T17:24:47.641Z,9
2019-05-11T17:28:06.516Z,11.1
2019-05-11T17:29:12.855Z,9.7
2019-05-11T17:30:19.166Z,10.9
2019-05-11T17:31:25.467Z,11.4
2019-05-11T17:33:38.006Z,9.2
2019-05-11T17:38:03.439Z,10.3
2019-05-11T17:40:15.938Z,10.9
2019-05-11T17:41:22.229Z,7.2
2019-05-11T17:42:28.600Z,7.8
2019-05-11T17:43:34.885Z,8.6
2019-05-11T17:44:41.231Z,9.7
2019-05-11T17:46:53.841Z,8
2019-05-11T17:50:12.749Z,9.4
2019-05-11T17:51:19.005Z,10.1
2019-05-11T17:53:31.068Z,11.5
2019-05-11T17:55:44.029Z,12.5
2019-05-11T17:56:50.620Z,8.4
2019-05-11T17:57:56.901Z,9.2
2019-05-11T18:00:09.534Z,9.7
2019-05-11T18:03:28.445Z,11.1
2019-05-11T18:04:34.787Z,13.7
2019-05-11T18:05:41.102Z,9.7
2019-05-11T18:06:47.039Z,10.7
2019-05-11T18:07:53.691Z,10.1
2019-05-11T18:08:59.099Z,14.1
2019-05-11T18:10:06.351Z,12.3
2019-05-11T18:11:12.647Z,10.9
2019-05-11T18:12:18.980Z,9.4
2019-05-11T18:13:25.279Z,9
2019-05-11T18:22:15.741Z,9.7
2019-05-11T18:24:28.386Z,9.7
2019-05-11T18:25:34.690Z,10.1
2019-05-11T18:26:40.994Z,10.2
2019-05-11T18:28:53.604Z,9
2019-05-11T18:31:06.218Z,10
2019-05-11T18:33:18.883Z,9.3
2019-05-11T18:34:25.188Z,11.7
2019-05-11T18:35:31.485Z,11.4
2019-05-11T18:37:44.118Z,12.6
2019-05-11T18:39:56.769Z,10.7
2019-05-11T18:42:09.378Z,8.8
2019-05-11T18:46:34.615Z,11.8
2019-05-11T18:47:40.087Z,11.3
2019-05-11T18:48:47.019Z,12
2019-05-11T18:49:53.525Z,14.8
2019-05-11T18:50:59.820Z,12.6
2019-05-11T18:52:06.122Z,10.3
2019-05-11T18:53:12.428Z,11.6
2019-05-11T18:56:31.363Z,9.6
2019-05-11T18:59:50.340Z,9.6
2019-05-11T19:02:02.946Z,10.9
2019-05-11T19:04:15.006Z,10
2019-05-11T19:06:28.181Z,9.3
2019-05-11T19:08:40.834Z,11.2
2019-05-11T19:09:47.152Z,10.7
2019-05-11T19:10:53.443Z,9.8
2019-05-11T19:13:06.008Z,8.7
2019-05-11T19:15:18.641Z,8.4
2019-05-11T19:17:31.307Z,8.1
2019-05-11T19:18:37.616Z,8.6
2019-05-11T19:21:56.539Z,8.2
2019-05-11T19:26:21.817Z,8
2019-05-11T19:28:34.438Z,9.6
2019-05-11T19:31:53.355Z,7.6
2019-05-11T19:32:59.655Z,8.4
2019-05-11T19:35:12.270Z,9.5
2019-05-11T19:37:24.891Z,7.1
2019-05-11T19:40:43.860Z,9.8
2019-05-11T19:41:50.112Z,8.1
2019-05-11T19:44:02.779Z,8
2019-05-11T19:47:21.697Z,8.4
2019-05-11T19:48:27.996Z,8
2019-05-11T19:50:40.659Z,8.7
2019-05-11T19:52:53.216Z,6.6
2019-05-11T19:53:59.581Z,8
2019-05-11T19:55:05.883Z,6.3
2019-05-11T19:57:18.522Z,6.6
2019-05-11T19:58:24.796Z,7.9
2019-05-11T19:59:31.119Z,11
2019-05-11T20:00:37.435Z,7.1
2019-05-11T20:02:50.101Z,6.7
2019-05-11T20:06:08.995Z,6.3
2019-05-11T20:08:21.576Z,7
2019-05-11T20:10:34.291Z,8.8
2019-05-11T20:14:59.467Z,10
2019-05-11T20:16:05.793Z,8.9
2019-05-11T20:17:12.107Z,5.3
2019-05-11T20:19:24.696Z,9.9
2019-05-11T20:21:37.310Z,8.4
2019-05-11T20:23:49.926Z,9.2
2019-05-11T20:24:56.291Z,6.5
2019-05-11T20:26:02.590Z,6.7
2019-05-11T20:27:08.902Z,6.4
2019-05-11T20:28:15.205Z,9
2019-05-11T20:30:27.818Z,6
2019-05-11T20:32:40.438Z,8.3
2019-05-11T20:34:53.082Z,8
2019-05-11T20:37:05.715Z,7.2
2019-05-11T20:38:12.105Z,6.6
2019-05-11T20:40:24.642Z,6.9
2019-05-11T20:41:30.925Z,7.7
2019-05-11T20:43:43.869Z,5.2
2019-05-11T20:44:49.874Z,5.7
2019-05-11T20:45:56.188Z,6.9
2019-05-11T20:47:02.488Z,5.4
2019-05-11T20:48:08.820Z,6.4
2019-05-11T20:54:46.666Z,5.2
2019-05-11T20:56:59.265Z,7.6
2019-05-11T21:00:18.212Z,5
2019-05-11T21:01:24.524Z,4.4
2019-05-11T21:03:37.528Z,6.9
2019-05-11T21:04:43.478Z,7.8
2019-05-11T21:08:02.404Z,6.6
2019-05-11T21:09:08.704Z,5.1
2019-05-11T21:10:15.855Z,5.9
2019-05-11T21:13:33.935Z,4.9
2019-05-11T21:14:40.287Z,5.7
2019-05-11T21:21:18.147Z,5.6
2019-05-11T21:22:24.450Z,8
2019-05-11T21:23:30.763Z,6.9
2019-05-11T21:25:43.350Z,8.3
2019-05-11T21:27:56.000Z,5.5
2019-05-11T21:29:02.290Z,6.6
2019-05-11T21:30:08.614Z,7.6
2019-05-11T21:31:14.908Z,5.5
2019-05-11T21:32:21.282Z,6.6
2019-05-11T21:34:33.898Z,7.8
2019-05-11T21:36:46.507Z,4.6
2019-05-11T21:37:52.008Z,5.9
2019-05-11T21:41:11.755Z,5.9
2019-05-11T21:42:18.006Z,5.9
2019-05-11T21:44:30.712Z,4.8
2019-05-11T21:45:37.074Z,9.2
2019-05-11T21:46:43.310Z,5.2
2019-05-11T21:47:49.637Z,4.8
2019-05-11T21:50:02.228Z,6.8
2019-05-11T21:52:14.891Z,5.4
2019-05-11T21:53:21.183Z,5.8
2019-05-11T21:54:27.492Z,6.4
2019-05-11T21:56:40.096Z,6.6
2019-05-11T21:57:46.417Z,5.3
2019-05-11T22:01:05.038Z,4.8
2019-05-11T22:03:17.097Z,5.4
2019-05-11T22:06:37.001Z,5.8
2019-05-11T22:07:43.228Z,5.1
2019-05-11T22:08:49.539Z,6.8
2019-05-11T22:13:14.076Z,8.3
2019-05-11T22:14:21.057Z,5.3
2019-05-11T22:15:27.366Z,5.8
2019-05-11T22:16:33.680Z,5.3
2019-05-11T22:17:39.991Z,7
2019-05-11T22:18:46.386Z,6.3
2019-05-11T22:20:58.973Z,6.1
2019-05-11T22:22:05.290Z,6.9
2019-05-11T22:23:11.611Z,6.6
2019-05-11T22:25:24.217Z,8.9
2019-05-11T22:26:30.518Z,5
2019-05-11T22:27:37.304Z,6.9
2019-05-11T22:28:43.194Z,5.4
2019-05-11T22:32:02.097Z,6
2019-05-11T22:35:21.031Z,7.1
2019-05-11T22:36:27.031Z,5
2019-05-11T22:37:33.603Z,6.1
2019-05-11T22:38:39.968Z,7.6
2019-05-11T22:40:52.523Z,7.2
2019-05-11T22:43:05.188Z,5.6
2019-05-11T22:47:30.425Z,5.9
2019-05-11T22:49:43.075Z,5.8
2019-05-11T22:50:49.361Z,6.5
2019-05-11T22:53:01.994Z,6.8
2019-05-11T22:54:08.267Z,8
2019-05-11T22:56:20.946Z,5.9
2019-05-11T22:58:33.568Z,6.3
2019-05-11T22:59:39.869Z,7.9
2019-05-11T23:00:46.181Z,7
2019-05-11T23:01:52.462Z,7.2
2019-05-11T23:02:58.819Z,9.5
2019-05-11T23:09:36.662Z,7.4
2019-05-11T23:11:49.279Z,9.3
2019-05-11T23:12:55.567Z,6
2019-05-11T23:14:01.916Z,6
2019-05-11T23:18:27.018Z,8
2019-05-11T23:21:46.065Z,7
2019-05-11T23:22:52.360Z,8.4
2019-05-11T23:27:17.606Z,7
2019-05-11T23:28:23.924Z,9.9
2019-05-11T23:29:30.300Z,5.6
2019-05-11T23:31:42.871Z,5
2019-05-11T23:33:55.496Z,6.7
2019-05-11T23:35:01.080Z,8.8
2019-05-11T23:36:08.148Z,5.7
2019-05-11T23:38:20.729Z,9.1
2019-05-11T23:40:33.392Z,5.9
2019-05-11T23:41:39.707Z,7.9
2019-05-11T23:42:45.989Z,8.9
2019-05-11T23:43:52.252Z,8.4
2019-05-11T23:47:11.203Z,7.6
2019-05-11T23:51:36.485Z,7.5
2019-05-11T23:53:49.060Z,6.2
2019-05-11T23:56:01.662Z,7.3
2019-05-11T23:57:07.992Z,9.1
2019-05-11T23:58:14.287Z,8.6
